Time;durP1;ratioP1;P1;durP2;ratioP2;P2;SDS_P1;SDS_P2;PMS_P1;PMS_P2;Temp;Humidity;BMP_temperature;BMP_pressure;BME280_temperature;BME280_humidity;BME280_pressure;Samples;Min_cycle;Max_cycle;Signal;HPM_P1;HPM_P2
2022/03/25 00:01:08;;;;;;;;;53.00;42.00;;;;;15.69;29.67;102045.25;5073912;28;45410;-61
2022/03/25 00:03:33;;;;;;;;;42.25;33.75;;;;;15.71;29.76;102049.50;5040693;28;45507;-60
2022/03/25 00:05:59;;;;;;;;;59.00;42.25;;;;;15.62;29.61;102042.50;5057886;28;46063;-60
2022/03/25 00:08:26;;;;;;;;;58.75;46.00;;;;;15.56;29.67;102052.50;5056516;28;45872;-60
2022/03/25 00:10:51;;;;;;;;;51.60;43.40;;;;;15.43;29.45;102052.50;5040181;28;45484;-60
2022/03/25 00:13:17;;;;;;;;;53.75;41.00;;;;;15.40;29.62;102053.78;5058187;28;45664;-60
2022/03/25 00:15:42;;;;;;;;;53.75;42.50;;;;;15.44;29.72;102059.75;5057858;28;46436;-60
2022/03/25 00:18:08;;;;;;;;;55.75;43.25;;;;;15.46;29.73;102054.84;5073507;28;45449;-61
2022/03/25 00:20:33;;;;;;;;;49.75;39.75;;;;;15.26;29.81;102022.50;5057878;28;45364;-61
2022/03/25 00:22:59;;;;;;;;;57.75;43.25;;;;;15.18;29.92;102017.19;5058063;28;45464;-60
2022/03/25 00:25:24;;;;;;;;;51.25;41.25;;;;;15.40;30.62;102056.56;5072907;28;45563;-60
2022/03/25 00:27:50;;;;;;;;;53.50;42.25;;;;;15.38;30.23;102044.00;5057701;28;45394;-60
2022/03/25 00:30:16;;;;;;;;;56.00;42.25;;;;;15.43;30.27;102060.81;5057989;28;45416;-60
2022/03/25 00:32:41;;;;;;;;;48.50;38.50;;;;;15.26;30.09;102033.56;5058100;28;45287;-60
2022/03/25 00:35:07;;;;;;;;;54.00;41.75;;;;;15.22;31.09;102024.00;5057439;28;46376;-60
2022/03/25 00:37:33;;;;;;;;;50.60;38.00;;;;;15.15;30.04;102014.81;5056458;28;45264;-60
2022/03/25 00:39:58;;;;;;;;;53.75;40.25;;;;;15.28;30.09;102050.81;5057493;28;45973;-61
2022/03/25 00:42:25;;;;;;;;;50.25;41.25;;;;;15.31;30.42;102049.50;5057720;28;45326;-61
2022/03/25 00:44:50;;;;;;;;;59.80;42.80;;;;;15.30;30.30;102053.34;5057296;28;46384;-59
2022/03/25 00:47:16;;;;;;;;;58.75;46.75;;;;;15.25;30.21;102055.88;5057488;28;45338;-60
2022/03/25 00:49:42;;;;;;;;;56.00;43.50;;;;;15.22;30.80;102053.56;5057499;28;45436;-60
2022/03/25 00:52:08;;;;;;;;;56.50;43.00;;;;;15.21;30.52;102052.69;5057620;28;45377;-60
2022/03/25 00:54:34;;;;;;;;;51.00;38.75;;;;;15.14;30.43;102054.59;5072583;28;47327;-61
2022/03/25 00:56:59;;;;;;;;;59.50;43.25;;;;;15.17;30.32;102051.44;5057299;28;45417;-60
2022/03/25 00:59:25;;;;;;;;;53.75;42.50;;;;;15.14;30.12;102046.31;5057731;28;45295;-60
2022/03/25 01:01:50;;;;;;;;;57.00;44.25;;;;;15.08;30.28;102055.44;5058004;28;45690;-60
2022/03/25 01:04:16;;;;;;;;;57.00;43.75;;;;;15.12;30.44;102056.72;5039177;28;46602;-60
2022/03/25 01:06:42;;;;;;;;;56.00;45.00;;;;;14.76;30.32;102014.56;5017517;28;45306;-60
2022/03/25 01:09:08;;;;;;;;;57.50;46.00;;;;;14.94;30.18;102047.13;5039526;28;45315;-60
2022/03/25 01:11:35;;;;;;;;;71.75;52.25;;;;;15.00;30.40;102049.06;5057551;28;45284;-60
2022/03/25 01:14:02;;;;;;;;;55.00;44.40;;;;;15.00;30.70;102045.44;5057166;28;45839;-61
2022/03/25 01:16:27;;;;;;;;;61.40;44.60;;;;;14.92;30.99;102043.72;5039202;28;45543;-60
2022/03/25 01:18:52;;;;;;;;;53.50;42.50;;;;;14.96;30.78;102045.03;5057530;28;45485;-60
2022/03/25 01:21:18;;;;;;;;;51.25;41.50;;;;;14.93;30.85;102036.28;5039396;28;45390;-60
2022/03/25 01:23:45;;;;;;;;;52.00;43.75;;;;;14.71;30.89;102012.41;5039231;28;46572;-61
2022/03/25 01:26:10;;;;;;;;;53.80;43.20;;;;;14.93;30.79;102037.13;5038578;28;45267;-60
2022/03/25 01:28:36;;;;;;;;;54.75;44.00;;;;;14.82;31.36;102030.31;5056944;28;45453;-62
2022/03/25 01:31:02;;;;;;;;;55.75;45.25;;;;;14.77;31.02;102025.41;5057199;28;45366;-60
2022/03/25 01:33:30;;;;;;;;;54.80;44.40;;;;;14.57;30.69;101999.63;5056634;28;46398;-60
2022/03/25 01:35:56;;;;;;;;;41.40;34.20;;;;;14.77;31.14;102032.84;5056813;28;45392;-60
2022/03/25 01:38:22;;;;;;;;;55.80;46.00;;;;;14.80;31.24;102028.81;5039120;28;45386;-60
2022/03/25 01:40:47;;;;;;;;;59.00;44.25;;;;;14.74;31.04;102027.75;5057127;28;45435;-61
2022/03/25 01:43:13;;;;;;;;;50.75;39.25;;;;;14.68;31.57;102020.25;5038656;28;46036;-60
2022/03/25 01:45:38;;;;;;;;;54.75;44.00;;;;;14.70;31.16;102023.66;5038646;28;45408;-61
2022/03/25 01:48:12;;;;;;;;;54.00;43.50;;;;;14.55;31.05;102010.88;5056735;28;45303;-59
2022/03/25 01:50:38;;;;;;;;;53.25;42.25;;;;;14.58;31.46;102015.97;5055601;28;45397;-60
2022/03/25 01:53:07;;;;;;;;;51.75;43.75;;;;;14.53;31.18;101992.78;5056528;28;46182;-61
2022/03/25 01:55:36;;;;;;;;;56.40;42.80;;;;;14.67;31.46;102021.31;5038626;28;45472;-60
2022/03/25 01:58:02;;;;;;;;;53.40;39.20;;;;;14.55;31.97;102012.75;5072100;28;45648;-60
2022/03/25 02:00:29;;;;;;;;;53.50;42.00;;;;;14.55;31.84;102019.16;5038655;28;45498;-61
2022/03/25 02:02:54;;;;;;;;;55.20;43.60;;;;;14.50;31.49;102019.78;5038484;28;46368;-60
2022/03/25 02:05:20;;;;;;;;;54.25;44.00;;;;;14.45;31.52;102019.53;5056073;28;45417;-59
2022/03/25 02:07:46;;;;;;;;;56.25;44.25;;;;;14.49;31.80;102019.97;5056413;28;45425;-60
2022/03/25 02:10:11;;;;;;;;;51.00;39.75;;;;;14.46;31.74;102015.72;5056456;28;45465;-60
2022/03/25 02:12:37;;;;;;;;;61.50;46.00;;;;;14.53;31.41;102009.38;5055922;28;45470;-60
2022/03/25 02:15:05;;;;;;;;;55.20;43.00;;;;;14.41;31.89;102009.94;5056345;28;45343;-61
2022/03/25 02:17:31;;;;;;;;;55.20;43.40;;;;;14.47;31.52;102019.34;5056021;28;45369;-60
2022/03/25 02:19:56;;;;;;;;;53.50;43.00;;;;;14.50;31.74;102021.69;5056039;28;45427;-61
2022/03/25 02:22:22;;;;;;;;;52.25;42.25;;;;;14.44;31.81;102026.13;5055610;28;47799;-60
2022/03/25 02:24:49;;;;;;;;;59.00;45.25;;;;;14.44;32.22;102023.38;5071368;28;45333;-60
2022/03/25 02:27:16;;;;;;;;;53.40;43.60;;;;;14.43;31.75;102013.38;5055914;28;45612;-60
2022/03/25 02:29:42;;;;;;;;;60.50;47.50;;;;;14.46;31.87;102014.88;5054889;28;45356;-62
2022/03/25 02:32:07;;;;;;;;;58.25;45.25;;;;;14.21;32.22;101982.28;5055424;28;46198;-61
2022/03/25 02:34:33;;;;;;;;;54.50;42.50;;;;;14.39;32.02;102016.75;5055906;28;45326;-61
2022/03/25 02:37:00;;;;;;;;;56.00;44.00;;;;;14.41;31.78;102014.66;5037681;28;45293;-60
2022/03/25 02:39:27;;;;;;;;;60.75;47.00;;;;;14.18;32.57;101996.47;5056151;28;45343;-60
2022/03/25 02:41:53;;;;;;;;;57.25;42.50;;;;;14.21;32.54;102024.53;5055483;28;46611;-60
2022/03/25 02:44:18;;;;;;;;;62.25;45.50;;;;;13.85;32.50;101967.66;5055653;28;45462;-60
2022/03/25 02:46:44;;;;;;;;;60.50;45.00;;;;;13.96;32.67;102008.50;5055776;28;45466;-61
2022/03/25 02:49:09;;;;;;;;;54.00;42.50;;;;;14.09;32.42;102026.19;5055098;28;45664;-60
2022/03/25 02:51:35;;;;;;;;;56.75;45.50;;;;;13.82;32.96;101998.41;5054143;28;45440;-60
2022/03/25 02:54:00;;;;;;;;;61.75;45.25;;;;;13.89;32.74;102031.59;5055618;28;45474;-60
2022/03/25 02:56:26;;;;;;;;;54.50;42.50;;;;;13.86;33.25;102027.31;5037076;28;45495;-60
2022/03/25 02:58:52;;;;;;;;;59.00;47.75;;;;;13.93;32.73;102032.91;5002808;28;45452;-59
2022/03/25 03:01:18;;;;;;;;;55.00;45.00;;;;;13.82;32.93;102029.63;5054776;28;46032;-60
2022/03/25 03:03:45;;;;;;;;;58.20;41.60;;;;;13.76;33.18;102029.59;5055239;28;45341;-61
2022/03/25 03:06:10;;;;;;;;;58.20;44.00;;;;;13.82;33.60;102026.88;5055234;28;45323;-60
2022/03/25 03:08:37;;;;;;;;;58.25;44.25;;;;;13.87;33.16;102017.16;5055522;28;45499;-60
2022/03/25 03:11:02;;;;;;;;;61.75;46.00;;;;;13.79;33.83;102027.28;5055100;28;45710;-61
2022/03/25 03:13:28;;;;;;;;;56.50;42.75;;;;;13.68;33.72;102019.56;5054696;28;45378;-60
2022/03/25 03:15:53;;;;;;;;;56.50;46.50;;;;;13.69;33.17;102021.28;5055164;28;45414;-60
2022/03/25 03:18:20;;;;;;;;;63.75;47.00;;;;;13.71;33.65;102018.31;5055179;28;45427;-61
2022/03/25 03:20:46;;;;;;;;;58.00;44.50;;;;;13.78;34.03;102027.50;5036832;28;47981;-61
2022/03/25 03:23:11;;;;;;;;;58.75;43.25;;;;;13.72;33.82;102020.84;5054845;28;45385;-61
2022/03/25 03:25:37;;;;;;;;;60.25;44.00;;;;;13.75;33.49;102025.97;5055020;28;45504;-61
2022/03/25 03:28:03;;;;;;;;;55.00;40.25;;;;;13.62;33.72;102023.13;5053775;28;45239;-61
2022/03/25 03:30:29;;;;;;;;;61.25;46.50;;;;;13.69;33.37;102032.31;5054360;28;47663;-61
2022/03/25 03:32:57;;;;;;;;;61.75;45.75;;;;;13.65;33.32;102018.06;5054820;28;45288;-61
2022/03/25 03:35:24;;;;;;;;;58.75;44.75;;;;;13.59;34.00;102027.13;5070283;28;45815;-61
2022/03/25 03:37:49;;;;;;;;;58.50;45.75;;;;;13.27;33.70;101974.25;5037045;28;45445;-61
2022/03/25 03:40:15;;;;;;;;;58.00;45.75;;;;;13.45;34.00;102006.00;5054796;28;45397;-61
2022/03/25 03:42:41;;;;;;;;;54.00;41.80;;;;;13.49;33.76;102021.97;5053484;28;45499;-61
2022/03/25 03:45:08;;;;;;;;;53.50;42.25;;;;;13.43;33.94;102017.22;5070274;28;45909;-61
2022/03/25 03:47:37;;;;;;;;;60.50;43.75;;;;;13.34;33.88;101999.97;5055073;28;45446;-60
2022/03/25 03:50:04;;;;;;;;;57.75;44.75;;;;;13.14;34.65;101986.88;5069893;28;46519;-60
2022/03/25 03:52:30;;;;;;;;;57.80;45.60;;;;;13.42;33.97;102016.41;5054428;28;45405;-60
2022/03/25 03:54:55;;;;;;;;;57.20;42.60;;;;;13.38;33.87;102017.84;5054842;28;45276;-60
2022/03/25 03:57:21;;;;;;;;;58.25;44.25;;;;;13.34;34.29;102016.50;5055131;28;45414;-60
2022/03/25 03:59:46;;;;;;;;;56.25;44.75;;;;;13.40;34.32;102021.22;5053674;28;46448;-60
2022/03/25 04:02:12;;;;;;;;;56.75;42.25;;;;;13.40;34.42;102024.00;5054737;28;45381;-62
2022/03/25 04:04:37;;;;;;;;;58.50;44.75;;;;;13.13;34.27;101989.84;5037040;28;45309;-60
2022/03/25 04:07:03;;;;;;;;;56.50;44.00;;;;;13.38;34.14;102019.72;5055164;28;45636;-60
2022/03/25 04:09:29;;;;;;;;;56.50;41.75;;;;;13.16;34.38;101992.19;5036454;28;46080;-60
2022/03/25 04:11:54;;;;;;;;;56.25;42.50;;;;;13.32;34.33;102026.91;5057204;28;45334;-61
2022/03/25 04:14:20;;;;;;;;;56.50;45.00;;;;;13.33;34.61;102023.09;5058064;28;45609;-62
2022/03/25 04:16:46;;;;;;;;;55.75;44.00;;;;;13.23;34.45;102006.88;5058586;28;45749;-61
2022/03/25 04:19:12;;;;;;;;;55.75;44.00;;;;;12.99;34.99;101978.72;5058107;28;46265;-61
2022/03/25 04:21:37;;;;;;;;;55.00;41.50;;;;;13.20;34.58;101998.16;5057835;28;45485;-61
2022/03/25 04:24:03;;;;;;;;;59.50;43.75;;;;;13.38;34.33;102022.47;5057346;28;45786;-62
2022/03/25 04:26:29;;;;;;;;;56.75;44.00;;;;;13.38;34.58;102025.25;5040088;28;45687;-61
2022/03/25 04:28:54;;;;;;;;;58.75;42.50;;;;;13.45;34.57;102031.66;5057649;28;45441;-61
2022/03/25 04:31:20;;;;;;;;;56.25;45.00;;;;;13.37;34.66;102029.06;5058147;28;45334;-61
2022/03/25 04:33:45;;;;;;;;;54.75;45.00;;;;;13.27;34.72;102033.00;5057934;28;45460;-61
2022/03/25 04:36:11;;;;;;;;;55.25;44.50;;;;;13.13;35.16;102022.94;5058634;28;45389;-61
2022/03/25 04:38:36;;;;;;;;;60.75;44.25;;;;;13.10;35.19;102031.56;5056109;28;46041;-61
2022/03/25 04:41:02;;;;;;;;;56.25;43.75;;;;;13.10;35.02;102020.56;5058176;28;45467;-61
2022/03/25 04:43:28;;;;;;;;;58.25;45.00;;;;;13.19;35.68;102029.53;5057532;28;45220;-62
2022/03/25 04:45:54;;;;;;;;;55.00;42.50;;;;;12.82;35.66;101977.25;5057741;28;45402;-61
2022/03/25 04:48:20;;;;;;;;;56.25;44.00;;;;;12.96;35.11;102006.63;5057376;28;45421;-61
2022/03/25 04:50:45;;;;;;;;;55.00;44.50;;;;;13.09;34.96;102038.13;5057615;28;45457;-61
2022/03/25 04:53:11;;;;;;;;;59.25;46.00;;;;;12.89;35.21;102002.97;5039859;28;45289;-61
2022/03/25 04:55:37;;;;;;;;;51.75;39.75;;;;;13.17;35.25;102042.69;5039740;28;45396;-60
2022/03/25 04:58:02;;;;;;;;;56.50;44.00;;;;;13.17;35.37;102040.75;5057161;28;46379;-62
2022/03/25 05:00:28;;;;;;;;;57.25;44.25;;;;;13.12;35.68;102038.59;5057246;28;45474;-61
2022/03/25 05:02:53;;;;;;;;;58.25;43.50;;;;;13.18;35.53;102047.97;5039406;28;45425;-61
2022/03/25 05:05:19;;;;;;;;;55.00;43.25;;;;;13.24;35.45;102046.34;5058043;28;45326;-61
2022/03/25 05:07:46;;;;;;;;;61.75;46.25;;;;;13.16;35.50;102047.31;5057318;28;45769;-61
2022/03/25 05:10:12;;;;;;;;;56.40;45.00;;;;;13.13;35.43;102056.84;5039593;28;45713;-61
2022/03/25 05:12:38;;;;;;;;;59.00;44.00;;;;;13.12;35.52;102049.63;5073080;28;45334;-61
2022/03/25 05:15:04;;;;;;;;;57.75;45.75;;;;;12.95;35.55;102023.38;5057485;28;45537;-61
2022/03/25 05:17:30;;;;;;;;;59.00;47.25;;;;;13.07;35.96;102056.78;5057140;28;46106;-61
2022/03/25 05:19:56;;;;;;;;;55.75;42.00;;;;;13.05;35.54;102053.34;5057142;28;45304;-62
2022/03/25 05:22:21;;;;;;;;;56.25;45.00;;;;;13.02;35.81;102049.09;5056748;28;45409;-62
2022/03/25 05:24:47;;;;;;;;;59.00;44.50;;;;;12.95;35.71;102040.75;5057357;28;45305;-61
2022/03/25 05:27:12;;;;;;;;;57.25;45.25;;;;;13.02;36.05;102051.84;5056736;28;46899;-62
2022/03/25 05:29:38;;;;;;;;;59.50;46.25;;;;;13.03;35.70;102059.09;5057113;28;45428;-61
2022/03/25 05:32:04;;;;;;;;;56.25;43.75;;;;;12.97;35.73;102054.34;5057086;28;45391;-60
2022/03/25 05:34:29;;;;;;;;;54.25;43.25;;;;;12.93;35.99;102055.78;5056954;28;45486;-64
2022/03/25 05:36:55;;;;;;;;;51.25;41.00;;;;;12.92;36.14;102051.31;5038815;28;45730;-62
2022/03/25 05:39:20;;;;;;;;;54.25;43.00;;;;;12.76;35.87;102022.97;5039042;28;45377;-61
2022/03/25 05:41:46;;;;;;;;;53.25;40.00;;;;;12.53;35.99;101985.44;5057091;28;45532;-60
2022/03/25 05:44:11;;;;;;;;;58.75;43.75;;;;;12.86;36.17;102058.47;5038921;28;45332;-60
2022/03/25 05:46:38;;;;;;;;;56.00;43.25;;;;;12.71;36.21;102048.34;5038638;28;46464;-61
2022/03/25 05:49:04;;;;;;;;;56.80;45.00;;;;;12.77;36.72;102060.50;5056250;28;45466;-60
2022/03/25 05:51:30;;;;;;;;;65.00;48.00;;;;;12.64;36.65;102057.59;5072561;28;45378;-60
2022/03/25 05:53:55;;;;;;;;;56.00;41.75;;;;;12.51;36.87;102056.38;5056739;28;45283;-60
2022/03/25 05:56:21;;;;;;;;;60.75;44.00;;;;;12.54;36.84;102055.97;5056164;28;45861;-60
2022/03/25 05:58:46;;;;;;;;;58.25;44.75;;;;;12.60;37.00;102049.69;5055867;28;45377;-60
2022/03/25 06:01:13;;;;;;;;;55.25;43.50;;;;;12.52;36.74;102054.47;5056585;28;45299;-60
2022/03/25 06:03:38;;;;;;;;;57.75;46.00;;;;;12.41;37.12;102059.44;5056388;28;45508;-62
2022/03/25 06:06:04;;;;;;;;;58.50;42.75;;;;;12.46;37.53;102062.47;5038093;28;45527;-62
2022/03/25 06:08:30;;;;;;;;;55.20;43.20;;;;;12.50;37.31;102073.94;5037852;28;45931;-61
2022/03/25 06:10:57;;;;;;;;;61.00;47.50;;;;;12.44;37.24;102052.69;5038059;28;45398;-61
2022/03/25 06:13:23;;;;;;;;;62.75;46.75;;;;;12.49;36.99;102049.34;5056355;28;45367;-60
2022/03/25 06:15:48;;;;;;;;;58.50;44.50;;;;;12.53;37.12;102072.72;5054956;28;46361;-61
2022/03/25 06:18:14;;;;;;;;;57.50;44.50;;;;;12.67;37.22;102081.97;5054280;28;45472;-61
2022/03/25 06:20:39;;;;;;;;;59.00;45.00;;;;;12.74;36.76;102081.03;5056281;28;45223;-61
2022/03/25 06:23:05;;;;;;;;;64.25;47.50;;;;;12.84;36.55;102082.59;5037842;28;45548;-61
2022/03/25 06:25:31;;;;;;;;;61.00;48.00;;;;;12.84;37.09;102083.47;5054730;28;45766;-61
2022/03/25 06:27:58;;;;;;;;;59.25;44.75;;;;;12.73;36.89;102057.28;5055861;28;45440;-60
2022/03/25 06:30:27;;;;;;;;;59.40;45.20;;;;;12.95;36.57;102090.38;5055880;28;45359;-60
2022/03/25 06:32:52;;;;;;;;;58.75;46.00;;;;;13.01;36.46;102086.84;5056148;28;45644;-60
2022/03/25 06:35:18;;;;;;;;;57.50;46.50;;;;;13.07;36.50;102092.63;5054584;28;46516;-60
2022/03/25 06:37:44;;;;;;;;;58.25;46.00;;;;;12.73;36.70;102031.63;5055364;28;45306;-60
2022/03/25 06:40:10;;;;;;;;;59.00;44.00;;;;;13.06;36.26;102089.00;5055783;28;45439;-61
2022/03/25 06:42:35;;;;;;;;;58.50;45.25;;;;;13.12;36.23;102099.25;5055790;28;45560;-60
2022/03/25 06:45:02;;;;;;;;;56.00;44.25;;;;;13.06;36.56;102094.50;5054440;28;46000;-59
2022/03/25 06:47:29;;;;;;;;;58.80;45.60;;;;;12.89;36.71;102085.63;5054250;28;45365;-60
2022/03/25 06:49:54;;;;;;;;;62.25;46.75;;;;;12.99;36.70;102099.97;5020835;28;45507;-60
2022/03/25 06:52:20;;;;;;;;;56.25;44.25;;;;;12.84;36.90;102077.97;5055838;28;45425;-60
2022/03/25 06:54:46;;;;;;;;;55.25;43.00;;;;;13.02;36.67;102101.44;5054840;28;46651;-61
2022/03/25 06:57:12;;;;;;;;;62.25;49.25;;;;;12.93;36.91;102089.72;5055487;28;45359;-60
2022/03/25 06:59:38;;;;;;;;;63.50;48.50;;;;;12.89;36.66;102080.13;5055648;28;45339;-61
2022/03/25 07:02:03;;;;;;;;;61.50;45.50;;;;;13.01;36.84;102108.88;5056184;28;45343;-60
2022/03/25 07:04:29;;;;;;;;;56.00;44.25;;;;;13.04;36.71;102112.28;5055039;28;45401;-60
2022/03/25 07:06:55;;;;;;;;;56.50;45.00;;;;;12.95;36.45;102090.38;5037299;28;45384;-60
2022/03/25 07:09:21;;;;;;;;;63.25;47.50;;;;;12.98;36.55;102102.91;5055408;28;45405;-60
2022/03/25 07:11:47;;;;;;;;;58.25;44.50;;;;;12.89;37.13;102099.41;5055865;28;45445;-58
2022/03/25 07:14:12;;;;;;;;;58.75;43.75;;;;;12.79;36.09;102076.81;5055567;28;45601;-58
2022/03/25 07:16:42;;;;;;;;;62.50;49.50;;;;;12.85;36.70;102090.69;5055342;28;45457;-61
2022/03/25 07:19:09;;;;;;;;;55.00;43.40;;;;;12.96;36.80;102107.78;4972245;28;46012;-60
2022/03/25 07:21:35;;;;;;;;;58.00;46.50;;;;;12.81;36.99;102083.84;5033604;28;45362;-60
2022/03/25 07:24:00;;;;;;;;;62.75;48.75;;;;;12.97;36.98;102123.25;5055166;28;46060;-59
2022/03/25 07:26:26;;;;;;;;;65.50;48.00;;;;;12.98;36.93;102108.41;5055150;28;45334;-60
2022/03/25 07:28:51;;;;;;;;;62.00;48.00;;;;;12.96;36.91;102124.31;5055287;28;45439;-60
2022/03/25 07:31:18;;;;;;;;;61.50;45.50;;;;;12.91;36.56;102118.50;5037698;28;45426;-59
2022/03/25 07:33:44;;;;;;;;;57.25;46.00;;;;;13.01;36.80;102124.56;5036967;28;46705;-62
2022/03/25 07:36:09;;;;;;;;;63.75;49.25;;;;;12.95;36.07;102126.19;5055172;28;45408;-63
2022/03/25 07:38:36;;;;;;;;;60.00;47.50;;;;;12.78;36.46;102109.03;5036752;28;45403;-61
2022/03/25 07:41:03;;;;;;;;;63.50;48.00;;;;;12.97;36.13;102139.78;5054043;28;45397;-60
2022/03/25 07:43:32;;;;;;;;;62.25;49.50;;;;;12.82;36.26;102124.13;5055157;28;47247;-61
2022/03/25 07:45:58;;;;;;;;;64.75;50.00;;;;;12.89;36.23;102143.50;5055004;28;45382;-64
2022/03/25 07:48:26;;;;;;;;;65.75;46.50;;;;;12.94;36.40;102134.66;5025097;27;45476;-65
2022/03/25 07:50:51;;;;;;;;;61.75;48.00;;;;;12.97;36.18;102142.53;5031761;28;45672;-62
2022/03/25 07:53:17;;;;;;;;;63.50;50.25;;;;;13.07;36.49;102150.50;5044940;28;46627;-62
2022/03/25 07:55:44;;;;;;;;;59.00;46.25;;;;;13.05;36.34;102145.19;5056911;28;45482;-61
2022/03/25 07:58:10;;;;;;;;;65.00;48.50;;;;;13.11;36.54;102149.91;5039567;28;45358;-60
2022/03/25 08:00:35;;;;;;;;;66.75;50.00;;;;;13.19;36.19;102142.56;5057909;28;45383;-62
2022/03/25 08:03:01;;;;;;;;;64.75;49.25;;;;;13.24;36.08;102143.69;5038721;28;48460;-61
2022/03/25 08:05:27;;;;;;;;;62.25;44.75;;;;;13.28;36.46;102146.88;5057804;28;45343;-61
2022/03/25 08:07:54;;;;;;;;;69.00;50.50;;;;;13.37;35.59;102150.38;5057963;28;45247;-62
2022/03/25 08:10:22;;;;;;;;;63.25;49.50;;;;;13.35;35.36;102145.06;5058136;28;45437;-62
2022/03/25 08:12:48;;;;;;;;;61.50;47.25;;;;;13.44;35.73;102153.22;5056579;28;45395;-64
2022/03/25 08:15:14;;;;;;;;;62.50;49.75;;;;;13.46;35.58;102153.91;5056213;28;45336;-62
2022/03/25 08:17:46;;;;;;;;;60.00;49.00;;;;;13.52;35.82;102153.97;5057804;28;45408;-61
2022/03/25 08:20:12;;;;;;;;;60.00;47.25;;;;;13.53;35.49;102157.56;5057843;28;45312;-69
2022/03/25 08:22:37;;;;;;;;;61.75;47.00;;;;;13.52;35.14;102144.84;5057512;28;45612;-63
2022/03/25 08:27:50;;;;;;;;;64.00;50.00;;;;;13.52;35.34;102151.22;5055080;28;45505;-63
2022/03/25 08:30:16;;;;;;;;;66.75;48.25;;;;;13.54;35.27;102143.59;5072781;28;45383;-65
2022/03/25 08:32:41;;;;;;;;;65.25;49.50;;;;;13.73;35.25;102151.41;5073202;28;45688;-62
2022/03/25 08:35:07;;;;;;;;;70.50;50.50;;;;;13.73;34.71;102160.53;5039295;28;45501;-63
2022/03/25 08:37:33;;;;;;;;;63.25;47.25;;;;;13.73;34.59;102152.25;5057389;28;45303;-63
2022/03/25 08:39:59;;;;;;;;;65.25;49.00;;;;;13.78;34.55;102157.19;5072049;28;45372;-62
2022/03/25 08:42:24;;;;;;;;;66.50;50.50;;;;;13.87;34.76;102150.44;5037318;28;46309;-61
2022/03/25 08:44:50;;;;;;;;;65.00;48.25;;;;;13.90;34.95;102138.16;5057236;28;45693;-63
2022/03/25 08:47:15;;;;;;;;;65.25;50.50;;;;;14.06;34.91;102157.19;5055543;28;45551;-64
2022/03/25 08:49:41;;;;;;;;;64.00;48.00;;;;;13.75;34.06;102110.66;5048226;27;45220;-61
2022/03/25 08:52:06;;;;;;;;;59.50;45.50;;;;;14.04;34.14;102161.22;5044980;28;45444;-62
2022/03/25 08:54:32;;;;;;;;;65.75;50.50;;;;;13.91;33.96;102129.69;5041322;28;45526;-64
2022/03/25 08:56:58;;;;;;;;;63.50;49.00;;;;;14.15;33.93;102157.88;5038540;28;45306;-62
2022/03/25 08:59:24;;;;;;;;;62.25;49.25;;;;;14.23;33.51;102154.97;5039207;28;45700;-61
2022/03/25 09:01:49;;;;;;;;;61.50;49.00;;;;;14.30;33.78;102157.78;5057371;28;46086;-61
2022/03/25 09:04:15;;;;;;;;;61.75;49.00;;;;;14.44;33.99;102161.47;5055528;28;45462;-61
2022/03/25 09:06:40;;;;;;;;;60.25;46.00;;;;;14.54;33.76;102151.97;5057274;28;45407;-62
2022/03/25 09:09:06;;;;;;;;;64.25;46.00;;;;;14.58;33.15;102153.25;5057424;28;45317;-62
2022/03/25 09:11:31;;;;;;;;;60.50;47.50;;;;;14.66;32.08;102149.50;5055443;28;46306;-62
2022/03/25 09:13:57;;;;;;;;;63.00;48.25;;;;;14.72;32.46;102160.56;5057288;28;45329;-66
2022/03/25 09:16:23;;;;;;;;;58.00;45.00;;;;;14.79;32.76;102152.34;5037452;28;45482;-62
2022/03/25 09:18:49;;;;;;;;;73.25;50.75;;;;;14.90;31.53;102159.19;5057264;28;45647;-61
2022/03/25 09:21:14;;;;;;;;;64.25;49.00;;;;;14.95;31.77;102153.03;5038542;28;45508;-62
2022/03/25 09:23:40;;;;;;;;;66.25;51.00;;;;;15.04;32.17;102149.00;5055465;28;45712;-62
2022/03/25 09:26:05;;;;;;;;;67.75;48.25;;;;;15.16;32.28;102154.81;5038821;28;45397;-63
2022/03/25 09:28:31;;;;;;;;;62.00;48.75;;;;;15.28;31.16;102155.03;5037480;28;45380;-61
2022/03/25 09:30:56;;;;;;;;;62.75;48.25;;;;;15.34;31.29;102153.34;5055116;28;46411;-65
2022/03/25 09:33:22;;;;;;;;;65.75;50.25;;;;;15.39;31.67;102134.22;5056502;28;45395;-66
2022/03/25 09:35:47;;;;;;;;;64.75;49.75;;;;;15.56;31.61;102145.72;5038682;28;45397;-63
2022/03/25 09:38:13;;;;;;;;;69.25;49.50;;;;;15.72;31.04;102150.00;5039061;28;45456;-62
2022/03/25 09:40:42;;;;;;;;;68.50;51.00;;;;;15.82;30.78;102147.66;5036862;28;45414;-63
2022/03/25 09:43:07;;;;;;;;;64.50;48.25;;;;;15.94;30.63;102147.91;5038662;28;45783;-62
2022/03/25 09:45:34;;;;;;;;;68.75;52.25;;;;;15.96;30.61;102134.69;5055480;28;45217;-64
2022/03/25 09:48:00;;;;;;;;;64.75;51.50;;;;;16.15;30.71;102139.56;5055644;28;45462;-62
2022/03/25 09:50:27;;;;;;;;;63.75;49.50;;;;;16.24;30.16;102144.66;5045296;28;45981;-63
2022/03/25 09:52:53;;;;;;;;;67.00;50.00;;;;;16.34;29.77;102146.97;5047881;28;45469;-60
2022/03/25 09:55:18;;;;;;;;;63.00;48.25;;;;;16.28;29.80;102122.06;5047201;28;46350;-58
2022/03/25 09:57:44;;;;;;;;;68.00;50.50;;;;;16.34;29.39;102118.44;5052639;27;45690;-64
2022/03/25 10:00:16;;;;;;;;;63.25;47.75;;;;;16.58;29.77;102147.34;5054521;28;45476;-61
2022/03/25 10:02:41;;;;;;;;;64.75;48.50;;;;;16.73;29.48;102155.41;5055040;28;45492;-61
2022/03/25 10:05:20;;;;;;;;;65.00;49.00;;;;;16.80;29.85;102147.91;5053888;28;45437;-61
2022/03/25 10:07:51;;;;;;;;;67.50;50.75;;;;;16.91;29.69;102138.03;5036541;28;45434;-60
2022/03/25 10:10:21;;;;;;;;;64.75;49.25;;;;;17.03;29.08;102142.94;5055617;28;45453;-61
2022/03/25 10:12:48;;;;;;;;;64.75;50.75;;;;;17.00;29.34;102122.00;5055508;28;45376;-60
2022/03/25 10:15:21;;;;;;;;;64.00;46.75;;;;;17.19;28.62;102138.78;5054324;28;45501;-59
2022/03/25 10:17:52;;;;;;;;;63.25;47.50;;;;;17.24;28.81;102127.84;5054157;28;45461;-62
2022/03/25 10:20:19;;;;;;;;;63.25;48.00;;;;;17.32;29.34;102137.84;5037189;28;46131;-63
2022/03/25 10:23:11;;;;;;;;;64.25;50.00;;;;;17.43;29.12;102131.59;5055127;28;45413;-63
2022/03/25 10:25:40;;;;;;;;;66.00;51.00;;;;;17.51;28.94;102133.25;5030823;28;45404;-63
2022/03/25 10:28:25;;;;;;;;;63.00;48.50;;;;;17.63;29.37;102130.59;5070297;28;45729;-70
2022/03/25 10:30:51;;;;;;;;;64.50;48.00;;;;;17.67;28.37;102133.75;5052682;28;48398;-62
2022/03/25 10:33:22;;;;;;;;;67.80;50.60;;;;;17.80;28.64;102141.13;5054276;28;45442;-62
2022/03/25 10:35:58;;;;;;;;;67.75;50.50;;;;;17.83;27.88;102135.13;5055810;28;45435;-62
2022/03/25 10:38:24;;;;;;;;;67.50;51.75;;;;;17.85;27.74;102136.59;5071065;28;45307;-62
2022/03/25 10:40:57;;;;;;;;;66.25;51.00;;;;;17.93;27.92;102131.84;5052302;28;47638;-63
2022/03/25 10:43:23;;;;;;;;;69.00;51.25;;;;;17.97;27.70;102131.16;5055552;28;45475;-63
2022/03/25 10:45:49;;;;;;;;;64.50;49.25;;;;;18.05;28.19;102134.69;5053811;28;45621;-62
2022/03/25 10:48:19;;;;;;;;;65.50;52.75;;;;;18.12;27.78;102127.19;5055338;28;45434;-63
2022/03/25 10:51:05;;;;;;;;;63.75;48.75;;;;;18.27;27.80;102129.59;5061609;28;45733;-64
2022/03/25 10:53:32;;;;;;;;;64.60;49.40;;;;;18.33;27.12;102130.59;5035752;28;46369;-63
2022/03/25 10:56:00;;;;;;;;;64.50;51.00;;;;;18.33;26.72;102116.69;5033872;28;45498;-62
2022/03/25 10:58:26;;;;;;;;;61.25;47.50;;;;;18.41;26.81;102124.75;5025757;28;45432;-63
2022/03/25 11:00:51;;;;;;;;;64.75;50.25;;;;;18.38;27.50;102120.50;4993798;28;46016;-60
2022/03/25 11:03:17;;;;;;;;;65.00;49.00;;;;;18.31;26.70;102094.72;4997270;28;45383;-59
2022/03/25 11:05:43;;;;;;;;;66.75;50.00;;;;;18.55;26.49;102131.84;5012835;28;45373;-59
2022/03/25 11:08:09;;;;;;;;;65.75;47.75;;;;;18.47;26.59;102104.34;5015056;28;45243;-60